createdAt,value
2022-11-15T00:01:42.604Z,2.88
2022-11-15T00:04:29.779Z,3.01
2022-11-15T00:07:40.293Z,3.03
2022-11-15T00:10:23.840Z,2.94
2022-11-15T00:13:13.340Z,2.92
2022-11-15T00:16:01.218Z,2.95
2022-11-15T00:18:50.961Z,2.99
2022-11-15T00:21:38.938Z,3.02
2022-11-15T00:24:26.375Z,3.01
2022-11-15T00:27:13.668Z,3.11
2022-11-15T00:30:01.338Z,3.17
2022-11-15T00:32:48.309Z,3.12
2022-11-15T00:35:38.828Z,3.04
2022-11-15T00:38:26.077Z,3.00
2022-11-15T00:41:12.989Z,2.96
2022-11-15T00:44:00.124Z,2.92
2022-11-15T00:46:47.812Z,2.89
2022-11-15T00:49:34.951Z,2.89
2022-11-15T00:52:23.855Z,2.82
2022-11-15T00:55:16.971Z,2.81
2022-11-15T00:58:04.747Z,2.84
2022-11-15T01:00:51.973Z,2.84
2022-11-15T01:03:51.006Z,2.79
2022-11-15T01:06:47.779Z,2.80
2022-11-15T01:09:35.946Z,2.64
2022-11-15T01:12:23.414Z,2.53
2022-11-15T01:15:11.221Z,2.50
2022-11-15T01:18:09.642Z,2.56
2022-11-15T01:20:56.905Z,2.66
2022-11-15T01:23:44.369Z,2.66
2022-11-15T01:26:32.423Z,2.63
2022-11-15T01:29:19.350Z,2.65
2022-11-15T01:32:06.652Z,2.63
2022-11-15T01:34:54.160Z,2.55
2022-11-15T01:37:41.080Z,2.65
2022-11-15T01:40:28.234Z,2.72
2022-11-15T01:43:29.162Z,2.81
2022-11-15T01:46:32.716Z,2.87
2022-11-15T01:49:25.474Z,2.88
2022-11-15T01:52:16.445Z,2.79
2022-11-15T01:55:11.943Z,2.70
2022-11-15T01:58:03.233Z,2.67
2022-11-15T02:00:52.537Z,2.63
2022-11-15T02:03:48.798Z,2.54
2022-11-15T02:06:37.969Z,2.46
2022-11-15T02:09:25.613Z,2.41
2022-11-15T02:12:16.630Z,2.36
2022-11-15T02:15:05.930Z,2.24
2022-11-15T02:18:18.643Z,2.11
2022-11-15T02:21:22.183Z,2.10
2022-11-15T02:24:35.223Z,2.04
2022-11-15T02:27:52.662Z,2.01
2022-11-15T02:30:46.835Z,2.05
2022-11-15T02:33:44.570Z,2.04
2022-11-15T02:36:43.775Z,2.11
2022-11-15T02:39:41.578Z,2.19
2022-11-15T02:42:50.226Z,2.18
2022-11-15T02:45:45.569Z,2.09
2022-11-15T02:48:34.408Z,1.96
2022-11-15T02:51:22.518Z,1.85
2022-11-15T02:54:12.929Z,1.72
2022-11-15T02:57:09.004Z,1.55
2022-11-15T03:00:09.662Z,1.48
2022-11-15T03:03:52.270Z,1.43
2022-11-15T03:06:50.425Z,1.33
2022-11-15T03:09:48.851Z,1.25
2022-11-15T03:12:43.663Z,1.07
2022-11-15T03:15:34.571Z,1.02
2022-11-15T03:18:29.156Z,1.04
2022-11-15T03:21:33.132Z,1.07
2022-11-15T03:24:26.269Z,0.99
2022-11-15T03:27:19.685Z,0.88
2022-11-15T03:30:11.052Z,0.86
2022-11-15T03:33:00.881Z,0.86
2022-11-15T03:35:51.704Z,0.74
2022-11-15T03:38:40.874Z,0.75
2022-11-15T03:41:37.533Z,0.63
2022-11-15T03:44:38.833Z,0.44
2022-11-15T03:47:34.642Z,0.35
2022-11-15T03:50:24.729Z,0.29
2022-11-15T03:53:14.244Z,0.18
2022-11-15T03:56:01.685Z,0.09
2022-11-15T03:58:49.414Z,0.03
2022-11-15T04:01:38.200Z,-0.06
2022-11-15T04:04:25.198Z,-0.13
2022-11-15T04:07:12.612Z,-0.13
2022-11-15T04:10:04.695Z,-0.10
2022-11-15T04:12:51.792Z,-0.14
2022-11-15T04:15:39.353Z,-0.08
2022-11-15T04:18:26.764Z,0.04
2022-11-15T04:21:31.926Z,0.21
2022-11-15T04:24:19.242Z,0.41
2022-11-15T04:27:07.468Z,0.64
2022-11-15T04:29:54.724Z,1.12
2022-11-15T04:32:41.791Z,1.17
2022-11-15T04:35:28.891Z,0.89
2022-11-15T04:38:15.980Z,0.76
2022-11-15T04:41:02.888Z,0.60
2022-11-15T04:43:51.059Z,0.56
2022-11-15T04:46:38.511Z,0.60
2022-11-15T04:49:25.314Z,0.65
2022-11-15T04:52:12.609Z,0.52
2022-11-15T04:55:03.583Z,0.45
2022-11-15T04:58:01.710Z,0.23
2022-11-15T05:00:49.922Z,0.03
2022-11-15T05:03:54.803Z,-0.09
2022-11-15T05:06:42.221Z,-0.15
2022-11-15T05:09:29.457Z,-0.17
2022-11-15T05:12:16.080Z,-0.14
2022-11-15T05:15:03.321Z,-0.15
2022-11-15T05:17:51.339Z,-0.13
2022-11-15T05:20:38.275Z,-0.09
2022-11-15T05:23:26.430Z,-0.11
2022-11-15T05:26:13.965Z,-0.15
2022-11-15T05:29:01.863Z,-0.08
2022-11-15T05:31:49.031Z,-0.17
2022-11-15T05:34:37.112Z,-0.22
2022-11-15T05:37:24.388Z,-0.35
2022-11-15T05:40:11.739Z,-0.37
2022-11-15T05:42:59.678Z,-0.33
2022-11-15T05:45:47.196Z,-0.32
2022-11-15T05:48:36.297Z,-0.37
2022-11-15T05:51:25.363Z,-0.40
2022-11-15T05:54:13.271Z,-0.42
2022-11-15T05:57:00.926Z,-0.46
2022-11-15T05:59:48.224Z,-0.54
2022-11-15T06:02:35.226Z,-0.60
2022-11-15T06:05:22.837Z,-0.72
2022-11-15T06:08:11.009Z,-0.75
2022-11-15T06:10:57.632Z,-0.63
2022-11-15T06:13:44.923Z,-0.41
2022-11-15T06:16:32.051Z,-0.23
2022-11-15T06:19:19.573Z,-0.28
2022-11-15T06:22:06.519Z,-0.40
2022-11-15T06:24:54.600Z,-0.52
2022-11-15T06:27:41.765Z,-0.56
2022-11-15T06:30:29.692Z,-0.57
2022-11-15T06:33:16.671Z,-0.62
2022-11-15T06:36:04.255Z,-0.59
2022-11-15T06:38:52.078Z,-0.42
2022-11-15T06:41:40.080Z,-0.19
2022-11-15T06:44:27.060Z,-0.08
2022-11-15T06:47:13.850Z,-0.01
2022-11-15T06:50:00.960Z,-0.01
2022-11-15T06:52:48.242Z,0.13
2022-11-15T06:55:35.525Z,0.15
2022-11-15T06:58:24.595Z,0.20
2022-11-15T07:01:14.188Z,0.25
2022-11-15T07:04:01.565Z,0.24
2022-11-15T07:06:49.360Z,0.22
2022-11-15T07:09:36.155Z,0.20
2022-11-15T07:12:23.399Z,0.25
2022-11-15T07:15:12.382Z,0.40
2022-11-15T07:18:03.071Z,0.45
2022-11-15T07:20:50.131Z,0.59
2022-11-15T07:23:39.773Z,0.78
2022-11-15T07:26:26.363Z,1.05
2022-11-15T07:29:13.550Z,1.38
2022-11-15T07:32:01.846Z,1.57
2022-11-15T07:34:48.908Z,1.77
2022-11-15T07:37:35.577Z,1.83
2022-11-15T07:40:22.911Z,1.88
2022-11-15T07:43:11.265Z,2.08
2022-11-15T07:45:59.577Z,2.33
2022-11-15T07:48:48.257Z,2.64
2022-11-15T07:51:35.405Z,2.92
2022-11-15T07:54:22.508Z,3.51
2022-11-15T07:57:11.665Z,3.73
2022-11-15T07:59:58.855Z,4.29
2022-11-15T08:02:45.963Z,5.92
2022-11-15T08:05:35.299Z,7.76
2022-11-15T08:08:22.643Z,8.47
2022-11-15T08:11:09.309Z,9.09
2022-11-15T08:13:56.567Z,9.91
2022-11-15T08:16:43.397Z,10.90
2022-11-15T08:19:30.089Z,11.39
2022-11-15T08:22:18.451Z,11.62
2022-11-15T08:25:06.270Z,11.47
2022-11-15T08:27:55.156Z,11.51
2022-11-15T08:30:46.445Z,11.55
2022-11-15T08:33:34.988Z,12.13
2022-11-15T08:36:22.882Z,11.89
2022-11-15T08:39:13.518Z,12.44
2022-11-15T08:42:00.622Z,12.16
2022-11-15T08:44:47.770Z,11.69
2022-11-15T08:47:34.994Z,12.39
2022-11-15T08:50:22.551Z,11.96
2022-11-15T08:53:10.465Z,12.59
2022-11-15T08:55:58.672Z,12.60
2022-11-15T08:58:45.759Z,12.34
2022-11-15T09:01:33.632Z,11.01
2022-11-15T09:04:20.774Z,10.16
2022-11-15T09:07:07.544Z,9.59
2022-11-15T09:09:54.553Z,8.92
2022-11-15T09:12:42.754Z,8.38
2022-11-15T09:15:29.651Z,7.99
2022-11-15T09:18:16.800Z,7.65
2022-11-15T09:21:04.609Z,7.39
2022-11-15T09:23:53.181Z,7.34
2022-11-15T09:26:40.294Z,7.34
2022-11-15T09:29:28.563Z,7.42
2022-11-15T09:32:15.530Z,7.45
2022-11-15T09:35:02.517Z,7.43
2022-11-15T09:37:54.952Z,7.45
2022-11-15T09:40:43.605Z,7.38
2022-11-15T09:43:44.886Z,7.43
2022-11-15T09:46:48.102Z,7.59
2022-11-15T09:49:25.826Z,7.75
2022-11-15T09:52:12.482Z,7.94
2022-11-15T09:54:56.100Z,7.98
2022-11-15T09:57:34.757Z,7.99
2022-11-15T10:03:15.381Z,8.08
2022-11-15T10:05:48.125Z,8.21
2022-11-15T10:08:50.048Z,8.24
2022-11-15T10:11:36.689Z,8.41
2022-11-15T10:14:14.050Z,8.49
2022-11-15T10:17:38.309Z,8.49
2022-11-15T10:20:21.855Z,8.55
2022-11-15T10:22:52.892Z,8.61
2022-11-15T10:25:25.709Z,8.64
2022-11-15T10:28:01.298Z,8.71
2022-11-15T10:30:35.808Z,8.71
2022-11-15T10:33:15.088Z,8.75
2022-11-15T10:35:44.940Z,8.79
2022-11-15T10:38:14.509Z,8.90
2022-11-15T10:40:44.754Z,8.84
2022-11-15T10:43:18.998Z,8.85
2022-11-15T10:45:49.745Z,8.94
2022-11-15T10:48:27.368Z,9.04
2022-11-15T10:50:58.396Z,9.22
2022-11-15T10:53:35.172Z,9.27
2022-11-15T10:56:09.118Z,9.35
2022-11-15T10:58:42.134Z,9.43
2022-11-15T11:01:21.086Z,9.55
2022-11-15T11:04:02.989Z,9.61
2022-11-15T11:06:47.846Z,9.62
2022-11-15T11:09:30.900Z,9.69
2022-11-15T11:11:59.361Z,9.70
2022-11-15T11:14:32.316Z,9.65
2022-11-15T11:17:15.246Z,9.49
2022-11-15T11:20:04.577Z,9.34
2022-11-15T11:22:44.381Z,9.31
2022-11-15T11:25:26.856Z,9.49
2022-11-15T11:28:12.353Z,9.57
2022-11-15T11:30:51.847Z,9.61
2022-11-15T11:33:24.299Z,9.62
2022-11-15T11:36:09.360Z,9.56
2022-11-15T11:39:00.052Z,9.47
2022-11-15T11:41:51.296Z,9.35
2022-11-15T11:44:40.185Z,9.39
2022-11-15T11:47:13.797Z,9.47
2022-11-15T11:49:50.138Z,9.57
2022-11-15T11:52:27.829Z,9.63
2022-11-15T11:55:13.843Z,9.61
2022-11-15T11:57:50.188Z,9.63
2022-11-15T12:00:23.390Z,9.79
2022-11-15T12:03:10.297Z,9.88
2022-11-15T12:05:43.958Z,10.09
2022-11-15T12:08:31.464Z,10.63
2022-11-15T12:11:14.410Z,12.13
2022-11-15T12:13:44.838Z,13.74
2022-11-15T12:16:19.063Z,15.08
2022-11-15T12:18:52.411Z,15.54
2022-11-15T12:21:28.884Z,16.34
2022-11-15T12:24:06.282Z,15.70
2022-11-15T12:26:42.319Z,15.56
2022-11-15T12:29:21.805Z,15.47
2022-11-15T12:31:57.797Z,15.94
2022-11-15T12:34:43.529Z,16.87
2022-11-15T12:37:56.194Z,16.53
2022-11-15T12:40:38.211Z,16.74
2022-11-15T12:43:44.618Z,16.56
2022-11-15T12:46:25.358Z,16.99
2022-11-15T12:48:59.266Z,17.50
2022-11-15T12:52:09.607Z,18.48
2022-11-15T12:55:32.268Z,18.02
2022-11-15T12:58:31.272Z,19.07
2022-11-15T13:01:01.179Z,19.06
2022-11-15T13:03:34.052Z,18.08
2022-11-15T13:06:32.322Z,17.81
2022-11-15T13:09:00.697Z,18.04
2022-11-15T13:11:48.652Z,19.10
2022-11-15T13:14:50.926Z,18.35
2022-11-15T13:17:34.829Z,18.36
2022-11-15T13:20:23.575Z,18.39
2022-11-15T13:22:55.770Z,18.26
2022-11-15T13:25:50.791Z,19.21
2022-11-15T13:28:32.411Z,19.46
2022-11-15T13:31:03.335Z,19.33
2022-11-15T13:33:37.471Z,19.44
2022-11-15T13:36:14.697Z,19.19
2022-11-15T13:38:44.156Z,18.59
2022-11-15T13:41:22.348Z,18.00
2022-11-15T13:43:52.449Z,17.85
2022-11-15T13:46:23.245Z,17.90
2022-11-15T13:48:57.592Z,17.71
2022-11-15T13:51:39.363Z,18.30
2022-11-15T13:54:21.161Z,18.26
2022-11-15T13:56:54.093Z,18.16
2022-11-15T13:59:27.166Z,17.74
2022-11-15T14:01:57.444Z,17.36
2022-11-15T14:04:31.193Z,16.34
2022-11-15T14:07:01.913Z,16.37
2022-11-15T14:09:42.140Z,16.79
2022-11-15T14:12:31.849Z,16.63
2022-11-15T14:15:03.400Z,16.77
2022-11-15T14:17:45.636Z,17.29
2022-11-15T14:20:31.660Z,17.53
2022-11-15T14:23:02.156Z,17.11
2022-11-15T14:25:32.187Z,17.37
2022-11-15T14:28:16.548Z,17.65
2022-11-15T14:30:51.055Z,17.61
2022-11-15T14:33:31.226Z,17.56
2022-11-15T14:36:05.068Z,17.35
2022-11-15T14:38:33.960Z,17.01
2022-11-15T14:41:02.559Z,16.44
2022-11-15T14:43:31.101Z,15.54
2022-11-15T14:46:00.202Z,13.93
2022-11-15T14:48:28.687Z,12.60
2022-11-15T14:50:57.420Z,11.42
2022-11-15T14:53:27.075Z,10.50
2022-11-15T14:55:55.393Z,9.96
2022-11-15T14:58:23.742Z,9.46
2022-11-15T15:00:52.429Z,9.08
2022-11-15T15:03:21.038Z,8.85
2022-11-15T15:05:49.728Z,8.67
2022-11-15T15:08:18.407Z,8.48
2022-11-15T15:10:48.757Z,8.25
2022-11-15T15:13:20.569Z,8.06
2022-11-15T15:15:50.251Z,7.81
2022-11-15T15:18:21.132Z,7.56
2022-11-15T15:20:56.664Z,7.33
2022-11-15T15:23:26.604Z,7.10
2022-11-15T15:25:56.645Z,6.95
2022-11-15T15:28:27.638Z,6.74
2022-11-15T15:30:59.964Z,6.50
2022-11-15T15:33:28.591Z,6.30
2022-11-15T15:35:57.208Z,6.07
2022-11-15T15:38:25.843Z,5.89
2022-11-15T15:40:55.675Z,5.72
2022-11-15T15:43:24.258Z,5.78
2022-11-15T15:45:52.896Z,5.66
2022-11-15T15:48:21.480Z,5.70
2022-11-15T15:50:50.346Z,5.69
2022-11-15T15:53:19.257Z,5.62
2022-11-15T15:55:47.851Z,5.56
2022-11-15T15:58:17.822Z,5.54
2022-11-15T16:00:46.095Z,5.47
2022-11-15T16:03:14.378Z,5.42
2022-11-15T16:05:43.003Z,5.52
2022-11-15T16:08:20.505Z,5.49
2022-11-15T16:10:49.397Z,5.22
2022-11-15T16:13:19.498Z,4.91
2022-11-15T16:15:52.580Z,4.80
2022-11-15T16:18:21.336Z,4.76
2022-11-15T16:20:53.091Z,4.84
2022-11-15T16:23:24.554Z,5.00
2022-11-15T16:25:56.535Z,4.98
2022-11-15T16:28:29.328Z,4.94
2022-11-15T16:31:08.070Z,4.86
2022-11-15T16:33:37.162Z,4.94
2022-11-15T16:36:07.741Z,4.86
2022-11-15T16:38:37.000Z,4.89
2022-11-15T16:41:05.861Z,4.94
2022-11-15T16:43:35.489Z,5.00
2022-11-15T16:46:15.110Z,5.14
2022-11-15T16:48:43.416Z,5.23
2022-11-15T16:51:12.042Z,5.36
2022-11-15T16:53:40.896Z,5.43
2022-11-15T16:56:24.114Z,5.38
2022-11-15T16:58:54.749Z,5.35
2022-11-15T17:01:26.412Z,5.30
2022-11-15T17:03:56.020Z,5.38
2022-11-15T17:06:25.957Z,5.45
2022-11-15T17:08:56.620Z,5.51
2022-11-15T17:11:25.211Z,5.57
2022-11-15T17:13:59.627Z,5.54
2022-11-15T17:16:28.354Z,5.51
2022-11-15T17:18:56.942Z,5.58
2022-11-15T17:21:33.423Z,5.59
2022-11-15T17:24:02.021Z,5.51
2022-11-15T17:26:33.978Z,5.44
2022-11-15T17:29:07.928Z,5.43
2022-11-15T17:31:37.162Z,5.46
2022-11-15T17:34:06.993Z,5.48
2022-11-15T17:36:36.478Z,5.50
2022-11-15T17:39:05.769Z,5.54
2022-11-15T17:41:34.353Z,5.58
2022-11-15T17:44:03.632Z,5.63
2022-11-15T17:46:36.379Z,5.69
2022-11-15T17:49:05.044Z,5.74
2022-11-15T17:51:34.105Z,5.76
2022-11-15T17:54:02.431Z,5.79
2022-11-15T17:56:31.881Z,5.79
2022-11-15T17:59:01.671Z,5.82
2022-11-15T18:01:31.992Z,5.82
2022-11-15T18:04:04.909Z,5.83
2022-11-15T18:06:35.552Z,5.86
2022-11-15T18:09:05.544Z,5.84
2022-11-15T18:11:38.430Z,5.90
2022-11-15T18:14:09.411Z,5.99
2022-11-15T18:16:40.263Z,6.15
2022-11-15T18:19:13.273Z,6.37
2022-11-15T18:21:59.184Z,6.59
2022-11-15T18:24:30.365Z,6.68
2022-11-15T18:27:00.151Z,6.72
2022-11-15T18:29:28.884Z,6.71
2022-11-15T18:31:57.538Z,6.72
2022-11-15T18:34:32.139Z,6.69
2022-11-15T18:37:00.979Z,6.70
2022-11-15T18:39:29.345Z,6.63
2022-11-15T18:41:57.962Z,6.56
2022-11-15T18:44:26.523Z,6.50
2022-11-15T18:46:54.801Z,6.55
2022-11-15T18:49:23.436Z,6.57
2022-11-15T18:51:53.072Z,6.61
2022-11-15T18:54:22.820Z,6.58
2022-11-15T18:56:53.909Z,6.58
2022-11-15T18:59:22.475Z,6.63
2022-11-15T19:01:52.195Z,6.58
2022-11-15T19:04:22.582Z,6.58
2022-11-15T19:06:53.928Z,6.53
2022-11-15T19:09:24.494Z,6.48
2022-11-15T19:11:53.075Z,6.43
2022-11-15T19:14:24.194Z,6.39
2022-11-15T19:16:54.623Z,6.51
2022-11-15T19:19:25.546Z,6.42
2022-11-15T19:21:57.066Z,6.37
2022-11-15T19:24:27.070Z,6.41
2022-11-15T19:26:55.926Z,6.45
2022-11-15T19:29:24.620Z,6.42
2022-11-15T19:31:53.250Z,6.41
2022-11-15T19:34:21.826Z,6.50
2022-11-15T19:36:50.415Z,6.45
2022-11-15T19:39:20.050Z,6.42
2022-11-15T19:41:50.025Z,6.41
2022-11-15T19:44:18.946Z,6.35
2022-11-15T19:46:47.417Z,6.27
2022-11-15T19:49:15.913Z,6.19
2022-11-15T19:51:45.236Z,6.14
2022-11-15T19:54:13.666Z,6.08
2022-11-15T19:56:43.371Z,6.01
2022-11-15T19:59:13.582Z,5.91
2022-11-15T20:01:42.672Z,5.85
2022-11-15T20:04:11.294Z,5.80
2022-11-15T20:06:42.470Z,5.66
2022-11-15T20:09:15.497Z,5.60
2022-11-15T20:11:45.681Z,5.56
2022-11-15T20:14:14.095Z,5.50
2022-11-15T20:16:43.611Z,5.46
2022-11-15T20:19:13.026Z,5.43
2022-11-15T20:21:41.669Z,5.33
2022-11-15T20:24:10.312Z,5.20
2022-11-15T20:26:39.341Z,5.16
2022-11-15T20:29:10.058Z,5.06
2022-11-15T20:31:38.645Z,5.05
2022-11-15T20:34:07.354Z,4.93
2022-11-15T20:36:35.613Z,4.81
2022-11-15T20:39:04.653Z,4.77
2022-11-15T20:41:33.231Z,4.75
2022-11-15T20:44:03.013Z,4.75
2022-11-15T20:46:32.732Z,4.71
2022-11-15T20:49:01.362Z,4.64
2022-11-15T20:51:29.914Z,4.64
2022-11-15T20:53:58.617Z,4.58
2022-11-15T20:56:27.189Z,4.56
2022-11-15T20:58:56.571Z,4.58
2022-11-15T21:01:25.569Z,4.59
2022-11-15T21:03:56.865Z,4.67
2022-11-15T21:06:27.136Z,4.75
2022-11-15T21:09:14.086Z,4.82
2022-11-15T21:12:00.449Z,4.89
2022-11-15T21:14:28.788Z,4.98
2022-11-15T21:16:57.497Z,5.16
2022-11-15T21:19:32.580Z,5.30
2022-11-15T21:22:05.673Z,5.40
2022-11-15T21:24:34.317Z,5.49
2022-11-15T21:27:03.337Z,5.53
2022-11-15T21:29:37.439Z,5.58
2022-11-15T21:32:08.235Z,5.67
2022-11-15T21:34:39.047Z,5.77
2022-11-15T21:37:07.944Z,5.79
2022-11-15T21:39:36.507Z,5.82
2022-11-15T21:42:06.072Z,5.84
2022-11-15T21:44:34.393Z,5.84
2022-11-15T21:47:02.753Z,5.85
2022-11-15T21:49:31.357Z,5.85
2022-11-15T21:52:01.321Z,5.82
2022-11-15T21:54:30.005Z,5.84
2022-11-15T21:56:58.642Z,5.81
2022-11-15T21:59:27.321Z,5.78
2022-11-15T22:02:13.622Z,5.75
2022-11-15T22:04:41.941Z,5.73
2022-11-15T22:07:11.615Z,5.67
2022-11-15T22:09:40.303Z,5.59
2022-11-15T22:12:08.616Z,5.49
2022-11-15T22:14:36.959Z,5.44
2022-11-15T22:17:05.573Z,5.43
2022-11-15T22:19:34.681Z,5.39
2022-11-15T22:22:03.340Z,5.37
2022-11-15T22:24:33.145Z,5.35
2022-11-15T22:27:01.738Z,5.25
2022-11-15T22:29:30.309Z,5.15
2022-11-15T22:31:58.891Z,5.05
2022-11-15T22:34:27.507Z,4.88
2022-11-15T22:37:19.988Z,4.79
2022-11-15T22:39:45.674Z,4.69
2022-11-15T22:42:15.634Z,4.64
2022-11-15T22:44:46.976Z,4.52
2022-11-15T22:47:15.254Z,4.36
2022-11-15T22:49:44.534Z,4.19
2022-11-15T22:52:13.658Z,4.11
2022-11-15T22:54:42.066Z,4.03
2022-11-15T22:57:11.736Z,3.94
2022-11-15T22:59:41.144Z,3.90
2022-11-15T23:02:09.860Z,3.89
2022-11-15T23:04:38.135Z,3.94
2022-11-15T23:07:06.752Z,4.00
2022-11-15T23:09:35.347Z,4.20
2022-11-15T23:12:21.193Z,4.42
2022-11-15T23:14:50.843Z,4.52
2022-11-15T23:17:19.530Z,4.54
2022-11-15T23:19:48.501Z,4.60
2022-11-15T23:22:34.213Z,4.62
2022-11-15T23:25:02.828Z,4.59
2022-11-15T23:27:31.366Z,4.59
2022-11-15T23:30:33.114Z,4.59
2022-11-15T23:33:19.287Z,4.60
2022-11-15T23:35:55.246Z,4.53
2022-11-15T23:38:23.509Z,4.55
2022-11-15T23:40:52.780Z,4.59
2022-11-15T23:43:21.840Z,4.61
2022-11-15T23:45:51.697Z,4.66
2022-11-15T23:48:20.316Z,4.70
2022-11-15T23:50:49.571Z,4.70
2022-11-15T23:53:18.286Z,4.68
2022-11-15T23:55:56.111Z,4.64
2022-11-15T23:58:24.748Z,4.64
